createdAt,value
2019-06-01T00:00:11.970Z,64.82
2019-06-01T00:01:08.329Z,64.82
2019-06-01T00:02:08.315Z,64.15
2019-06-01T00:03:08.353Z,64.63
2019-06-01T00:04:08.311Z,64.72
2019-06-01T00:05:08.307Z,64.53
2019-06-01T00:06:08.332Z,63.38
2019-06-01T00:07:08.306Z,63.19
2019-06-01T00:08:08.307Z,62.33
2019-06-01T00:09:08.302Z,62.13
2019-06-01T00:10:08.326Z,61.82
2019-06-01T00:11:08.301Z,61.91
2019-06-01T00:12:08.300Z,60.67
2019-06-01T00:13:08.313Z,60.28
2019-06-01T00:14:08.296Z,61.91
2019-06-01T00:15:08.296Z,61.63
2019-06-01T00:16:08.292Z,61.82
2019-06-01T00:17:08.293Z,61.53
2019-06-01T00:18:08.289Z,61.63
2019-06-01T00:19:08.288Z,62.30
2019-06-01T00:20:08.288Z,61.82
2019-06-01T00:21:08.285Z,61.34
2019-06-01T00:22:08.288Z,62.49
2019-06-01T00:23:08.281Z,62.10
2019-06-01T00:24:08.282Z,61.91
2019-06-01T00:25:08.281Z,61.43
2019-06-01T00:26:08.279Z,61.72
2019-06-01T00:27:08.274Z,61.82
2019-06-01T00:28:08.274Z,61.72
2019-06-01T00:29:08.269Z,62.39
2019-06-01T00:30:08.268Z,61.82
2019-06-01T00:31:08.269Z,62.01
2019-06-01T00:32:08.267Z,61.91
2019-06-01T00:33:08.263Z,62.20
2019-06-01T00:34:08.262Z,61.82
2019-06-01T00:35:08.261Z,60.57
2019-06-01T00:36:08.260Z,61.15
2019-06-01T00:37:08.257Z,61.24
2019-06-01T00:38:08.255Z,61.63
2019-06-01T00:39:08.252Z,60.96
2019-06-01T00:40:08.267Z,61.91
2019-06-01T00:41:08.249Z,60.86
2019-06-01T00:42:08.247Z,60.76
2019-06-01T00:43:08.246Z,61.05
2019-06-01T00:44:08.246Z,60.67
2019-06-01T00:45:08.245Z,60.28
2019-06-01T00:46:08.244Z,60.54
2019-06-01T00:47:08.238Z,60.64
2019-06-01T00:48:08.235Z,60.44
2019-06-01T00:49:08.236Z,59.87
2019-06-01T00:50:08.235Z,59.97
2019-06-01T00:51:08.241Z,59.77
2019-06-01T00:52:08.232Z,60.16
2019-06-01T00:53:08.232Z,60.54
2019-06-01T00:54:08.226Z,59.58
2019-06-01T00:55:08.223Z,59.39
2019-06-01T00:56:08.227Z,58.91
2019-06-01T00:57:08.220Z,58.72
2019-06-01T00:58:08.223Z,59.39
2019-06-01T00:59:08.216Z,59.87
2019-06-01T01:00:08.215Z,59.58
2019-06-01T01:01:08.215Z,59.01
2019-06-01T01:02:08.209Z,59.30
2019-06-01T01:03:08.217Z,58.91
2019-06-01T01:04:08.205Z,58.72
2019-06-01T01:05:08.208Z,58.62
2019-06-01T01:06:08.208Z,57.76
2019-06-01T01:07:08.204Z,57.19
2019-06-01T01:08:08.197Z,57.09
2019-06-01T01:09:08.198Z,57.38
2019-06-01T01:10:08.199Z,57.95
2019-06-01T01:11:08.191Z,56.81
2019-06-01T01:12:08.189Z,57.38
2019-06-01T01:13:08.189Z,58.05
2019-06-01T01:14:08.186Z,56.99
2019-06-01T01:15:08.228Z,57.57
2019-06-01T01:16:08.184Z,57.76
2019-06-01T01:17:08.188Z,57.38
2019-06-01T01:18:08.184Z,58.34
2019-06-01T01:19:08.178Z,57.38
2019-06-01T01:20:08.174Z,58.15
2019-06-01T01:21:08.174Z,59.01
2019-06-01T01:22:08.178Z,58.72
2019-06-01T01:23:08.168Z,58.72
2019-06-01T01:24:08.166Z,58.53
2019-06-01T01:25:08.164Z,59.11
2019-06-01T01:26:08.177Z,59.68
2019-06-01T01:27:08.161Z,59.30
2019-06-01T01:28:08.158Z,58.05
2019-06-01T01:29:08.163Z,57.95
2019-06-01T01:30:08.153Z,57.95
2019-06-01T01:31:13.810Z,57.09
2019-06-01T01:32:08.192Z,57.28
2019-06-01T01:33:08.147Z,56.90
2019-06-01T01:34:08.146Z,57.19
2019-06-01T01:35:08.142Z,57.19
2019-06-01T01:36:08.142Z,57.09
2019-06-01T01:37:08.140Z,57.28
2019-06-01T01:38:08.137Z,56.81
2019-06-01T01:39:08.136Z,56.71
2019-06-01T01:40:08.132Z,57.19
2019-06-01T01:41:08.133Z,57.76
2019-06-01T01:42:08.129Z,56.90
2019-06-01T01:43:08.127Z,57.57
2019-06-01T01:44:08.457Z,57.06
2019-06-01T01:45:08.121Z,57.19
2019-06-01T01:46:08.121Z,57.06
2019-06-01T01:47:08.122Z,56.87
2019-06-01T01:48:08.120Z,56.71
2019-06-01T01:49:08.111Z,56.68
2019-06-01T01:50:08.111Z,56.39
2019-06-01T01:51:08.110Z,56.59
2019-06-01T01:52:08.106Z,56.49
2019-06-01T01:53:08.110Z,56.20
2019-06-01T01:54:08.102Z,56.39
2019-06-01T01:55:08.101Z,54.67
2019-06-01T01:56:08.099Z,54.38
2019-06-01T01:57:08.099Z,54.57
2019-06-01T01:58:08.097Z,54.67
2019-06-01T01:59:08.093Z,54.86
2019-06-01T02:00:08.088Z,54.77
2019-06-01T02:01:21.446Z,53.71
2019-06-01T02:02:08.087Z,53.14
2019-06-01T02:03:08.083Z,52.66
2019-06-01T02:04:08.076Z,52.66
2019-06-01T02:05:08.076Z,52.47
2019-06-01T02:06:08.073Z,52.47
2019-06-01T02:07:08.072Z,52.28
2019-06-01T02:08:08.068Z,52.56
2019-06-01T02:09:08.070Z,52.56
2019-06-01T02:10:08.075Z,52.47
2019-06-01T02:11:08.110Z,51.99
2019-06-01T02:12:08.060Z,51.99
2019-06-01T02:13:08.075Z,50.46
2019-06-01T02:14:08.054Z,51.79
2019-06-01T02:15:08.061Z,51.70
2019-06-01T02:16:08.049Z,51.99
2019-06-01T02:17:08.046Z,53.14
2019-06-01T02:18:08.045Z,52.85
2019-06-01T02:19:08.046Z,52.66
2019-06-01T02:20:08.039Z,53.62
2019-06-01T02:21:08.038Z,54.00
2019-06-01T02:22:08.034Z,53.81
2019-06-01T02:23:08.034Z,53.04
2019-06-01T02:24:08.034Z,52.75
2019-06-01T02:25:08.026Z,53.20
2019-06-01T02:26:08.036Z,53.52
2019-06-01T02:27:08.025Z,53.14
2019-06-01T02:28:08.019Z,52.95
2019-06-01T02:29:08.018Z,53.14
2019-06-01T02:30:08.019Z,52.75
2019-06-01T02:31:08.016Z,52.95
2019-06-01T02:32:08.012Z,52.75
2019-06-01T02:33:08.006Z,53.11
2019-06-01T02:34:08.005Z,52.95
2019-06-01T02:35:08.003Z,53.49
2019-06-01T02:36:08.000Z,53.88
2019-06-01T02:37:07.999Z,54.10
2019-06-01T02:38:07.997Z,53.30
2019-06-01T02:39:07.993Z,53.30
2019-06-01T02:40:07.988Z,52.92
2019-06-01T02:41:07.988Z,52.92
2019-06-01T02:42:07.986Z,52.47
2019-06-01T02:43:07.983Z,52.92
2019-06-01T02:44:07.986Z,53.62
2019-06-01T02:45:07.977Z,53.52
2019-06-01T02:46:07.975Z,54.36
2019-06-01T02:47:07.981Z,54.26
2019-06-01T02:48:07.979Z,53.97
2019-06-01T02:49:07.976Z,54.07
2019-06-01T02:50:07.972Z,54.45
2019-06-01T02:51:07.957Z,53.40
2019-06-01T02:52:07.959Z,53.02
2019-06-01T02:53:07.956Z,53.02
2019-06-01T02:54:07.953Z,53.02
2019-06-01T02:55:07.953Z,52.63
2019-06-01T02:56:07.948Z,53.40
2019-06-01T02:57:07.946Z,52.54
2019-06-01T02:58:07.947Z,52.34
2019-06-01T02:59:07.940Z,52.54
2019-06-01T03:00:07.954Z,53.02
2019-06-01T03:01:07.935Z,52.15
2019-06-01T03:02:12.494Z,51.48
2019-06-01T03:03:07.977Z,49.66
2019-06-01T03:04:08.375Z,49.76
2019-06-01T03:05:07.925Z,49.38
2019-06-01T03:06:07.931Z,49.57
2019-06-01T03:07:08.823Z,49.66
2019-06-01T03:08:07.914Z,48.71
2019-06-01T03:09:08.968Z,47.56
2019-06-01T03:10:08.972Z,48.04
2019-06-01T03:11:08.130Z,47.66
2019-06-01T03:12:08.219Z,46.89
2019-06-01T03:13:08.360Z,46.98
2019-06-01T03:14:08.967Z,46.61
2019-06-01T03:15:08.643Z,46.89
2019-06-01T03:16:08.913Z,46.51
2019-06-01T03:17:07.963Z,45.45
2019-06-01T03:18:35.707Z,45.07
2019-06-01T03:19:08.091Z,45.65
2019-06-01T03:20:07.911Z,46.41
2019-06-01T03:21:07.936Z,46.12
2019-06-01T03:22:08.648Z,45.36
2019-06-01T03:23:07.954Z,45.00
2019-06-01T03:24:08.135Z,45.17
2019-06-01T03:25:08.064Z,45.76
2019-06-01T03:26:08.687Z,45.86
2019-06-01T03:27:08.266Z,46.31
2019-06-01T03:28:08.183Z,46.62
2019-06-01T03:29:09.474Z,46.34
2019-06-01T03:30:09.815Z,46.31
2019-06-01T03:31:08.843Z,46.15
2019-06-01T03:32:29.743Z,46.51
2019-06-01T03:33:10.332Z,46.34
2019-06-01T03:34:09.332Z,47.56
2019-06-01T03:35:08.827Z,47.56
2019-06-01T03:36:08.984Z,48.73
2019-06-01T03:37:09.041Z,48.04
2019-06-01T03:38:09.204Z,48.25
2019-06-01T03:39:08.243Z,49.00
2019-06-01T03:40:15.590Z,49.19
2019-06-01T03:41:08.248Z,49.48
2019-06-01T03:42:08.064Z,49.38
2019-06-01T03:43:07.817Z,49.09
2019-06-01T03:44:08.526Z,48.80
2019-06-01T03:45:07.814Z,48.13
2019-06-01T03:46:08.743Z,46.98
2019-06-01T03:47:07.807Z,47.27
2019-06-01T03:48:08.768Z,47.47
2019-06-01T03:49:07.802Z,46.91
2019-06-01T03:50:09.129Z,47.18
2019-06-01T03:51:08.315Z,48.07
2019-06-01T03:52:08.817Z,47.75
2019-06-01T03:53:07.914Z,47.27
2019-06-01T03:54:08.553Z,47.56
2019-06-01T03:55:07.834Z,47.20
2019-06-01T03:56:08.985Z,47.08
2019-06-01T03:57:09.099Z,47.47
2019-06-01T03:58:09.062Z,47.27
2019-06-01T03:59:07.774Z,48.33
2019-06-01T04:00:07.773Z,48.80
2019-06-01T04:01:07.768Z,49.48
2019-06-01T04:02:07.769Z,49.19
2019-06-01T04:03:07.766Z,49.21
2019-06-01T04:04:07.762Z,49.50
2019-06-01T04:05:07.758Z,49.09
2019-06-01T04:06:07.756Z,49.60
2019-06-01T04:07:08.293Z,49.11
2019-06-01T04:08:07.747Z,48.35
2019-06-01T04:09:07.888Z,44.62
2019-06-01T04:10:08.040Z,45.86
2019-06-01T04:11:07.816Z,46.34
2019-06-01T04:12:07.771Z,47.87
2019-06-01T04:13:07.738Z,48.93
2019-06-01T04:14:07.820Z,50.56
2019-06-01T04:15:11.842Z,51.51
2019-06-01T04:16:07.926Z,51.51
2019-06-01T04:17:08.119Z,50.84
2019-06-01T04:18:08.103Z,51.22
2019-06-01T04:19:08.057Z,51.51
2019-06-01T04:20:08.197Z,52.47
2019-06-01T04:21:08.129Z,52.56
2019-06-01T04:22:08.013Z,52.09
2019-06-01T04:23:08.071Z,52.09
2019-06-01T04:24:08.038Z,51.42
2019-06-01T04:25:08.320Z,52.28
2019-06-01T04:26:08.126Z,53.23
2019-06-01T04:27:08.227Z,53.62
2019-06-01T04:28:08.192Z,54.00
2019-06-01T04:29:08.291Z,54.28
2019-06-01T04:30:07.694Z,53.42
2019-06-01T04:31:08.557Z,54.99
2019-06-01T04:32:08.661Z,54.99
2019-06-01T04:33:08.901Z,54.50
2019-06-01T04:34:08.775Z,54.03
2019-06-01T04:35:08.906Z,53.55
2019-06-01T04:36:08.944Z,53.74
2019-06-01T04:37:07.679Z,53.93
2019-06-01T04:38:07.672Z,52.69
2019-06-01T04:39:07.678Z,52.87
2019-06-01T04:40:07.668Z,53.45
2019-06-01T04:41:07.674Z,54.60
2019-06-01T04:42:07.750Z,54.41
2019-06-01T04:43:07.958Z,54.82
2019-06-01T04:44:07.867Z,54.44
2019-06-01T04:45:08.930Z,55.87
2019-06-01T04:46:08.170Z,56.54
2019-06-01T04:47:09.293Z,57.41
2019-06-01T04:48:08.425Z,59.23
2019-06-01T04:49:08.566Z,60.38
2019-06-01T04:50:08.728Z,64.02
2019-06-01T04:51:08.809Z,64.25
2019-06-01T04:52:08.801Z,64.53
2019-06-01T04:53:08.764Z,65.08
2019-06-01T04:54:08.723Z,64.25
2019-06-01T04:55:08.965Z,64.53
2019-06-01T04:56:08.879Z,65.78
2019-06-01T04:57:08.818Z,67.02
2019-06-01T04:58:08.752Z,67.02
2019-06-01T04:59:08.808Z,69.13
2019-06-01T05:00:19.772Z,69.42
2019-06-01T05:01:08.862Z,71.19
2019-06-01T05:02:09.072Z,72.14
2019-06-01T05:03:09.241Z,72.72
2019-06-01T05:04:07.621Z,73.58
2019-06-01T05:05:07.619Z,73.97
2019-06-01T05:06:07.616Z,74.35
2019-06-01T05:07:07.615Z,75.15
2019-06-01T05:08:07.613Z,78.90
2019-06-01T05:09:07.620Z,84.12
2019-06-01T05:10:07.721Z,87.15
2019-06-01T05:11:08.976Z,91.66
2019-06-01T05:12:07.611Z,94.21
2019-06-01T05:13:07.606Z,98.10
2019-06-01T05:14:07.621Z,99.88
2019-06-01T05:15:07.658Z,99.99
2019-06-01T05:16:07.915Z,99.99
2019-06-01T05:17:07.873Z,99.99
2019-06-01T05:18:07.965Z,99.99
2019-06-01T05:19:08.099Z,99.99
2019-06-01T05:20:08.276Z,99.99
2019-06-01T05:21:08.425Z,99.99
2019-06-01T05:22:08.419Z,99.99
2019-06-01T05:23:08.526Z,99.99
2019-06-01T05:24:08.833Z,99.99
2019-06-01T05:25:08.828Z,99.99
2019-06-01T05:26:08.681Z,99.99
2019-06-01T05:27:08.885Z,99.99
2019-06-01T05:28:07.608Z,99.99
2019-06-01T05:29:07.602Z,99.99
2019-06-01T05:30:07.607Z,99.99
2019-06-01T05:31:09.723Z,99.99
2019-06-01T05:32:08.392Z,99.99
2019-06-01T05:33:21.436Z,99.99
2019-06-01T05:34:07.765Z,99.99
2019-06-01T05:35:07.781Z,99.99
2019-06-01T05:36:08.025Z,99.99
2019-06-01T05:37:08.500Z,99.99
2019-06-01T05:38:08.129Z,99.99
2019-06-01T05:39:08.242Z,99.99
2019-06-01T05:40:08.440Z,99.99
2019-06-01T05:41:09.968Z,99.99
2019-06-01T05:42:08.882Z,99.99
2019-06-01T05:43:12.439Z,99.99
2019-06-01T05:44:08.801Z,99.99
2019-06-01T05:45:08.992Z,99.99
2019-06-01T05:46:07.614Z,99.99
2019-06-01T05:47:07.630Z,99.99
2019-06-01T05:48:07.624Z,99.99
2019-06-01T05:49:07.619Z,99.99
2019-06-01T05:50:07.627Z,99.99
2019-06-01T05:51:07.615Z,99.99
2019-06-01T05:52:07.620Z,99.99
2019-06-01T05:53:07.620Z,99.99
2019-06-01T05:54:07.624Z,99.99
2019-06-01T05:55:07.627Z,99.99
2019-06-01T05:56:07.625Z,99.99
2019-06-01T05:57:07.621Z,99.99
2019-06-01T05:58:07.631Z,99.99
2019-06-01T05:59:07.651Z,99.99
2019-06-01T06:00:07.628Z,99.99
2019-06-01T06:01:07.631Z,99.99
2019-06-01T06:02:07.629Z,99.99
2019-06-01T06:03:07.638Z,99.99
2019-06-01T06:04:07.632Z,99.99
2019-06-01T06:05:07.636Z,99.99
2019-06-01T06:06:07.675Z,99.99
2019-06-01T06:07:07.638Z,99.99
2019-06-01T06:08:07.640Z,99.99
2019-06-01T06:09:07.656Z,99.99
2019-06-01T06:10:07.649Z,99.99
2019-06-01T06:11:07.671Z,99.99
2019-06-01T06:12:07.642Z,99.99
2019-06-01T06:13:07.645Z,99.99
2019-06-01T06:14:07.645Z,99.99
2019-06-01T06:15:07.648Z,99.99
2019-06-01T06:16:07.648Z,99.99
2019-06-01T06:17:07.647Z,99.99
2019-06-01T06:18:07.649Z,99.99
2019-06-01T06:19:07.650Z,99.99
2019-06-01T06:20:07.659Z,99.99
2019-06-01T06:21:07.655Z,99.99
2019-06-01T06:22:07.657Z,99.99
2019-06-01T06:23:07.658Z,99.99
2019-06-01T06:24:07.658Z,99.99
2019-06-01T06:25:07.678Z,99.99
2019-06-01T06:26:07.667Z,99.99
2019-06-01T06:27:07.661Z,99.99
2019-06-01T06:28:07.665Z,99.99
2019-06-01T06:29:07.677Z,99.99
2019-06-01T06:30:07.665Z,99.54
2019-06-01T06:31:07.672Z,99.69
2019-06-01T06:32:09.333Z,99.40
2019-06-01T06:33:07.671Z,99.21
2019-06-01T06:34:07.680Z,98.72
2019-06-01T06:35:07.672Z,98.68
2019-06-01T06:36:07.668Z,98.97
2019-06-01T06:37:07.673Z,98.82
2019-06-01T06:38:07.683Z,99.06
2019-06-01T06:39:07.686Z,99.01
2019-06-01T06:40:07.678Z,99.64
2019-06-01T06:41:07.725Z,99.44
2019-06-01T06:42:07.676Z,99.26
2019-06-01T06:43:18.995Z,99.64
2019-06-01T06:44:07.701Z,99.93
2019-06-01T06:45:07.690Z,99.99
2019-06-01T06:46:07.681Z,99.99
2019-06-01T06:47:07.682Z,99.99
2019-06-01T06:48:07.690Z,99.99
2019-06-01T06:49:09.965Z,99.99
2019-06-01T06:50:07.687Z,99.99
2019-06-01T06:51:07.687Z,99.99
2019-06-01T06:52:07.697Z,99.99
2019-06-01T06:53:07.697Z,99.99
2019-06-01T06:54:07.704Z,99.99
2019-06-01T06:55:07.689Z,99.99
2019-06-01T06:56:07.690Z,99.99
2019-06-01T06:57:07.697Z,99.99
2019-06-01T06:58:07.695Z,99.99
2019-06-01T06:59:07.723Z,99.99
2019-06-01T07:00:07.696Z,99.99
2019-06-01T07:01:11.801Z,99.99
2019-06-01T07:02:07.711Z,99.99
2019-06-01T07:03:07.699Z,99.99
2019-06-01T07:04:12.623Z,99.99
2019-06-01T07:05:07.703Z,99.99
2019-06-01T07:06:07.702Z,99.99
2019-06-01T07:07:07.706Z,99.99
2019-06-01T07:08:07.705Z,99.99
2019-06-01T07:09:07.716Z,99.99
2019-06-01T07:10:07.723Z,99.99
2019-06-01T07:11:07.728Z,99.99
2019-06-01T07:12:07.713Z,99.99
2019-06-01T07:13:07.915Z,99.99
2019-06-01T07:14:07.725Z,99.99
2019-06-01T07:15:07.730Z,99.99
2019-06-01T07:16:07.735Z,99.99
2019-06-01T07:17:07.720Z,99.99
2019-06-01T07:18:07.739Z,99.99
2019-06-01T07:19:07.724Z,99.99
2019-06-01T07:20:07.737Z,99.99
2019-06-01T07:21:07.742Z,99.99
2019-06-01T07:22:07.729Z,99.99
2019-06-01T07:23:07.735Z,99.99
2019-06-01T07:24:07.733Z,99.99
2019-06-01T07:25:07.736Z,99.99
2019-06-01T07:26:07.747Z,99.99
2019-06-01T07:27:07.743Z,99.99
2019-06-01T07:28:07.755Z,99.99
2019-06-01T07:29:07.745Z,99.99
2019-06-01T07:30:07.747Z,99.99
2019-06-01T07:31:07.750Z,99.99
2019-06-01T07:32:07.750Z,99.99
2019-06-01T07:33:07.755Z,99.99
2019-06-01T07:34:07.756Z,99.99
2019-06-01T07:35:07.757Z,99.99
2019-06-01T07:36:07.759Z,99.99
2019-06-01T07:37:07.766Z,99.99
2019-06-01T07:38:07.764Z,99.99
2019-06-01T07:39:07.767Z,99.99
2019-06-01T07:40:12.946Z,99.99
2019-06-01T07:41:07.773Z,99.99
2019-06-01T07:42:07.794Z,99.99
2019-06-01T07:43:07.782Z,99.99
2019-06-01T07:44:07.778Z,99.99
2019-06-01T07:45:07.787Z,99.99
2019-06-01T07:46:07.784Z,99.99
2019-06-01T07:47:07.787Z,99.99
2019-06-01T07:48:07.789Z,99.99
2019-06-01T07:49:07.794Z,99.99
2019-06-01T07:50:07.795Z,99.99
2019-06-01T07:51:07.799Z,99.99
2019-06-01T07:52:12.727Z,99.99
2019-06-01T07:53:07.805Z,99.99
2019-06-01T07:54:07.808Z,99.99
2019-06-01T07:55:07.813Z,99.99
2019-06-01T07:56:07.814Z,99.99
2019-06-01T07:57:07.812Z,99.99
2019-06-01T07:58:07.817Z,99.99
2019-06-01T07:59:07.822Z,99.99
2019-06-01T08:00:07.823Z,99.99
2019-06-01T08:01:07.829Z,99.99
2019-06-01T08:02:07.843Z,99.99
2019-06-01T08:03:07.829Z,99.99
2019-06-01T08:04:07.834Z,99.99
2019-06-01T08:05:07.837Z,99.99
2019-06-01T08:06:07.839Z,99.99
2019-06-01T08:07:07.853Z,99.99
2019-06-01T08:08:07.896Z,99.99
2019-06-01T08:09:07.858Z,99.99
2019-06-01T08:10:07.872Z,99.99
2019-06-01T08:11:07.880Z,99.99
2019-06-01T08:12:07.856Z,99.99
2019-06-01T08:13:07.858Z,99.99
2019-06-01T08:14:07.861Z,99.99
2019-06-01T08:15:07.864Z,99.99
2019-06-01T08:16:07.868Z,99.99
2019-06-01T08:17:07.866Z,99.99
2019-06-01T08:18:07.868Z,98.78
2019-06-01T08:19:07.874Z,98.68
2019-06-01T08:20:07.881Z,98.88
2019-06-01T08:21:07.880Z,97.62
2019-06-01T08:22:07.893Z,96.65
2019-06-01T08:23:07.897Z,97.33
2019-06-01T08:24:07.951Z,95.83
2019-06-01T08:25:07.888Z,93.41
2019-06-01T08:26:07.894Z,78.33
2019-06-01T08:27:07.904Z,73.49
2019-06-01T08:28:07.908Z,76.39
2019-06-01T08:29:07.899Z,75.71
2019-06-01T08:30:07.903Z,74.17
2019-06-01T08:31:07.903Z,74.17
2019-06-01T08:32:07.906Z,74.49
2019-06-01T08:33:07.905Z,74.57
2019-06-01T08:34:08.033Z,69.99
2019-06-01T08:35:09.625Z,64.43
2019-06-01T08:36:07.925Z,61.97
2019-06-01T08:37:07.922Z,59.69
2019-06-01T08:38:07.928Z,54.99
2019-06-01T08:39:07.929Z,53.28
2019-06-01T08:40:07.931Z,51.56
2019-06-01T08:41:07.936Z,50.90
2019-06-01T08:42:07.941Z,50.34
2019-06-01T08:43:07.942Z,49.88
2019-06-01T08:44:07.948Z,49.27
2019-06-01T08:45:07.952Z,48.32
2019-06-01T08:46:07.966Z,47.87
2019-06-01T08:47:07.995Z,47.02
2019-06-01T08:48:07.983Z,45.67
2019-06-01T08:49:07.973Z,45.62
2019-06-01T08:50:07.991Z,42.97
2019-06-01T08:51:07.986Z,42.38
2019-06-01T08:52:07.988Z,43.09
2019-06-01T08:53:07.995Z,42.70
2019-06-01T08:54:08.003Z,42.48
2019-06-01T08:55:08.007Z,44.10
2019-06-01T08:56:08.014Z,45.80
2019-06-01T08:57:08.025Z,47.90
2019-06-01T08:58:08.082Z,49.22
2019-06-01T08:59:08.029Z,49.24
2019-06-01T09:00:08.038Z,47.95
2019-06-01T09:01:08.042Z,46.11
2019-06-01T09:02:08.051Z,45.86
2019-06-01T09:03:08.056Z,44.96
2019-06-01T09:04:08.086Z,44.84
2019-06-01T09:05:21.274Z,45.36
2019-06-01T09:06:08.072Z,45.82
2019-06-01T09:07:08.079Z,46.48
2019-06-01T09:08:08.091Z,47.24
2019-06-01T09:09:11.524Z,48.07
2019-06-01T09:10:08.101Z,49.02
2019-06-01T09:11:08.105Z,49.49
2019-06-01T09:12:08.107Z,50.63
2019-06-01T09:13:08.113Z,51.48
2019-06-01T09:14:08.118Z,52.53
2019-06-01T09:15:08.124Z,53.59
2019-06-01T09:16:08.130Z,53.11
2019-06-01T09:17:08.139Z,53.38
2019-06-01T09:18:08.142Z,52.89
2019-06-01T09:19:11.166Z,51.94
2019-06-01T09:20:08.148Z,50.97
2019-06-01T09:21:08.154Z,50.41
2019-06-01T09:22:08.159Z,49.27
2019-06-01T09:23:08.166Z,48.41
2019-06-01T09:24:08.174Z,47.29
2019-06-01T09:25:08.183Z,46.14
2019-06-01T09:26:08.183Z,45.58
2019-06-01T09:27:08.189Z,44.53
2019-06-01T09:28:08.190Z,43.49
2019-06-01T09:29:08.201Z,42.95
2019-06-01T09:30:08.205Z,41.33
2019-06-01T09:31:08.210Z,39.70
2019-06-01T09:32:11.049Z,38.66
2019-06-01T09:33:08.223Z,37.90
2019-06-01T09:34:08.228Z,38.11
2019-06-01T09:35:08.239Z,35.97
2019-06-01T09:36:08.240Z,35.20
2019-06-01T09:37:08.248Z,34.13
2019-06-01T09:38:08.255Z,33.44
2019-06-01T09:39:08.262Z,33.36
2019-06-01T09:40:08.271Z,32.98
2019-06-01T09:41:08.288Z,32.38
2019-06-01T09:42:08.285Z,33.54
2019-06-01T09:43:08.292Z,33.53
2019-06-01T09:44:08.300Z,33.80
2019-06-01T09:45:08.318Z,33.03
2019-06-01T09:46:08.316Z,33.02
2019-06-01T09:47:08.322Z,33.31
2019-06-01T09:48:08.333Z,33.51
2019-06-01T09:49:08.339Z,33.31
2019-06-01T09:50:08.347Z,33.12
2019-06-01T09:51:08.356Z,33.10
2019-06-01T09:52:12.158Z,33.20
2019-06-01T09:53:08.368Z,33.20
2019-06-01T09:54:08.381Z,32.45
2019-06-01T09:55:08.409Z,31.87
2019-06-01T09:56:08.399Z,32.46
2019-06-01T09:57:08.415Z,31.39
2019-06-01T09:58:08.415Z,30.91
2019-06-01T09:59:08.421Z,31.11
2019-06-01T10:00:08.431Z,31.03
2019-06-01T10:01:08.437Z,30.72
2019-06-01T10:02:08.446Z,30.43
2019-06-01T10:03:08.451Z,30.63
2019-06-01T10:04:08.464Z,30.34
2019-06-01T10:05:08.497Z,30.44
2019-06-01T10:06:08.784Z,30.44
2019-06-01T10:07:08.772Z,29.94
2019-06-01T10:08:08.561Z,30.24
2019-06-01T10:09:08.516Z,31.00
2019-06-01T10:10:08.516Z,31.95
2019-06-01T10:11:09.421Z,32.45
2019-06-01T10:12:09.429Z,32.45
2019-06-01T10:13:08.769Z,32.07
2019-06-01T10:14:09.392Z,32.17
2019-06-01T10:15:09.042Z,31.98
2019-06-01T10:16:08.756Z,31.11
2019-06-01T10:17:08.859Z,31.01
2019-06-01T10:18:08.773Z,30.45
2019-06-01T10:19:08.756Z,30.16
2019-06-01T10:20:08.976Z,30.16
2019-06-01T10:21:08.826Z,29.76
2019-06-01T10:22:09.371Z,29.78
2019-06-01T10:23:08.657Z,29.69
2019-06-01T10:24:08.847Z,29.60
2019-06-01T10:25:08.863Z,29.00
2019-06-01T10:26:08.728Z,29.38
2019-06-01T10:27:08.823Z,30.06
2019-06-01T10:28:08.906Z,31.10
2019-06-01T10:29:09.136Z,31.49
2019-06-01T10:30:08.947Z,31.29
2019-06-01T10:31:08.971Z,31.01
2019-06-01T10:32:08.735Z,30.91
2019-06-01T10:33:08.728Z,30.71
2019-06-01T10:34:09.829Z,31.36
2019-06-01T10:35:08.747Z,32.33
2019-06-01T10:36:20.056Z,32.51
2019-06-01T10:37:08.968Z,33.18
2019-06-01T10:38:08.864Z,32.43
2019-06-01T10:39:08.834Z,33.18
2019-06-01T10:40:08.850Z,32.98
2019-06-01T10:41:09.098Z,33.02
2019-06-01T10:42:08.812Z,32.24
2019-06-01T10:43:09.166Z,31.10
2019-06-01T10:44:09.036Z,30.72
2019-06-01T10:45:08.862Z,30.26
2019-06-01T10:46:09.842Z,29.50
2019-06-01T10:47:09.072Z,28.52
2019-06-01T10:48:08.868Z,28.06
2019-06-01T10:49:08.865Z,27.77
2019-06-01T10:50:09.697Z,27.18
2019-06-01T10:51:09.021Z,27.19
2019-06-01T10:52:09.054Z,27.18
2019-06-01T10:53:09.340Z,28.05
2019-06-01T10:54:08.915Z,29.00
2019-06-01T10:55:08.993Z,29.21
2019-06-01T10:56:09.043Z,28.44
2019-06-01T10:57:08.992Z,28.61
2019-06-01T10:58:08.982Z,29.66
2019-06-01T10:59:08.980Z,30.52
2019-06-01T11:00:09.001Z,30.80
2019-06-01T11:01:09.011Z,31.09
2019-06-01T11:02:09.037Z,31.26
2019-06-01T11:03:09.057Z,31.38
2019-06-01T11:04:09.061Z,30.72
2019-06-01T11:05:09.091Z,30.52
2019-06-01T11:06:09.311Z,30.62
2019-06-01T11:07:09.440Z,30.79
2019-06-01T11:08:09.215Z,30.80
2019-06-01T11:09:09.056Z,30.62
2019-06-01T11:10:09.068Z,30.35
2019-06-01T11:11:09.078Z,29.68
2019-06-01T11:12:09.088Z,28.72
2019-06-01T11:13:09.187Z,28.24
2019-06-01T11:14:09.169Z,27.86
2019-06-01T11:15:09.179Z,27.55
2019-06-01T11:16:09.134Z,28.13
2019-06-01T11:17:09.186Z,28.51
2019-06-01T11:18:09.150Z,29.58
2019-06-01T11:19:09.195Z,28.80
2019-06-01T11:20:09.181Z,28.52
2019-06-01T11:21:09.177Z,28.24
2019-06-01T11:22:09.191Z,27.76
2019-06-01T11:23:09.200Z,27.17
2019-06-01T11:24:09.209Z,26.60
2019-06-01T11:25:09.221Z,26.71
2019-06-01T11:26:09.228Z,26.32
2019-06-01T11:27:09.258Z,26.68
2019-06-01T11:28:09.261Z,27.39
2019-06-01T11:29:09.331Z,26.71
2019-06-01T11:30:09.273Z,26.21
2019-06-01T11:31:09.286Z,26.53
2019-06-01T11:32:09.298Z,25.95
2019-06-01T11:33:09.307Z,25.35
2019-06-01T11:34:09.334Z,25.45
2019-06-01T11:35:09.334Z,25.56
2019-06-01T11:36:09.360Z,24.68
2019-06-01T11:37:09.363Z,25.07
2019-06-01T11:38:09.372Z,25.73
2019-06-01T11:39:09.384Z,25.52
2019-06-01T11:40:09.402Z,26.12
2019-06-01T11:41:09.408Z,25.93
2019-06-01T11:42:09.460Z,25.65
2019-06-01T11:43:09.502Z,25.48
2019-06-01T11:44:09.453Z,24.89
2019-06-01T11:45:09.459Z,25.07
2019-06-01T11:46:09.477Z,25.92
2019-06-01T11:47:09.486Z,26.40
2019-06-01T11:48:09.500Z,27.35
2019-06-01T11:49:09.546Z,28.13
2019-06-01T11:50:09.521Z,29.19
2019-06-01T11:51:09.533Z,28.99
2019-06-01T11:52:09.545Z,29.37
2019-06-01T11:53:09.572Z,28.51
2019-06-01T11:54:09.573Z,28.14
2019-06-01T11:55:09.601Z,27.86
2019-06-01T11:56:09.591Z,27.00
2019-06-01T11:57:09.600Z,26.13
2019-06-01T11:58:09.625Z,25.55
2019-06-01T11:59:09.674Z,25.05
2019-06-01T12:00:09.647Z,25.37
2019-06-01T12:01:09.654Z,24.88
2019-06-01T12:02:09.666Z,24.78
2019-06-01T12:03:09.698Z,24.20
2019-06-01T12:04:09.690Z,24.11
2019-06-01T12:05:09.701Z,23.82
2019-06-01T12:06:09.718Z,23.33
2019-06-01T12:07:17.366Z,23.91
2019-06-01T12:08:09.743Z,24.69
2019-06-01T12:09:09.800Z,24.58
2019-06-01T12:10:09.772Z,24.68
2019-06-01T12:11:09.781Z,24.40
2019-06-01T12:12:09.815Z,24.52
2019-06-01T12:13:09.853Z,23.33
2019-06-01T12:14:10.081Z,22.94
2019-06-01T12:15:09.839Z,23.24
2019-06-01T12:16:10.255Z,23.35
2019-06-01T12:17:09.895Z,23.05
2019-06-01T12:18:09.885Z,23.26
2019-06-01T12:19:10.305Z,22.37
2019-06-01T12:20:09.911Z,22.08
2019-06-01T12:21:09.990Z,21.39
2019-06-01T12:22:11.475Z,21.59
2019-06-01T12:23:09.959Z,21.00
2019-06-01T12:24:09.981Z,20.71
2019-06-01T12:25:09.993Z,19.51
2019-06-01T12:26:10.000Z,19.52
2019-06-01T12:27:10.020Z,19.61
2019-06-01T12:28:10.033Z,20.29
2019-06-01T12:29:10.391Z,21.04
2019-06-01T12:30:10.066Z,21.11
2019-06-01T12:31:10.105Z,23.06
2019-06-01T12:32:10.092Z,23.18
2019-06-01T12:33:10.107Z,22.60
2019-06-01T12:34:10.122Z,21.92
2019-06-01T12:35:10.141Z,22.73
2019-06-01T12:36:10.153Z,22.84
2019-06-01T12:37:10.170Z,22.34
2019-06-01T12:38:10.284Z,21.67
2019-06-01T12:39:10.419Z,21.97
2019-06-01T12:40:10.337Z,21.37
2019-06-01T12:41:11.400Z,21.77
2019-06-01T12:42:10.527Z,21.38
2019-06-01T12:43:11.485Z,20.98
2019-06-01T12:44:10.266Z,20.89
2019-06-01T12:45:10.468Z,20.79
2019-06-01T12:46:10.534Z,20.49
2019-06-01T12:47:10.505Z,20.79
2019-06-01T12:48:10.353Z,20.98
2019-06-01T12:49:10.642Z,20.89
2019-06-01T12:50:11.405Z,20.79
2019-06-01T12:51:10.375Z,20.49
2019-06-01T12:52:12.458Z,20.79